Terminal Aerodrome Forecast
Issued by NWS Sioux Falls, SD

Home | Current Version | Previous Version | Graphics & Text | Print | Product List | Glossary On
Versions: 1 2 3 4 5 6 7 8 9 10 11 12 13 14 15 16 17
000
FTUS43 KFSD 140520
TAFSUX
TAF
KSUX 140520Z 1406/1506 16011KT P6SM OVC035
      TEMPO 1409/1411 4SM -SN
     FM141500 18009KT P6SM BKN020
     FM141800 22013KT P6SM OVC025
     FM142200 22013KT 2SM -SN OVC015
     FM150100 30009KT P6SM BKN020
     FM150300 33017G28KT P6SM BKN030=

USA.gov is the U.S. government's official web portal to all federal, state and local government web resources and services.